createdAt,value
2018-12-17T00:00:15.802Z,49.56
2018-12-17T00:00:47.397Z,49.63
2018-12-17T00:01:18.991Z,49.65
2018-12-17T00:01:50.586Z,49.60
2018-12-17T00:02:22.189Z,49.73
2018-12-17T00:02:53.824Z,49.75
2018-12-17T00:03:25.427Z,49.80
2018-12-17T00:03:57.021Z,49.88
2018-12-17T00:04:28.613Z,49.91
2018-12-17T00:05:00.206Z,49.91
2018-12-17T00:05:31.802Z,50.03
2018-12-17T00:06:03.402Z,50.08
2018-12-17T00:06:34.995Z,50.15
2018-12-17T00:07:06.617Z,49.94
2018-12-17T00:07:38.232Z,50.14
2018-12-17T00:08:09.859Z,50.17
2018-12-17T00:08:41.467Z,50.15
2018-12-17T00:09:13.076Z,50.32
2018-12-17T00:09:44.677Z,50.21
2018-12-17T00:10:16.277Z,50.33
2018-12-17T00:10:47.870Z,50.35
2018-12-17T00:11:19.470Z,50.49
2018-12-17T00:11:51.085Z,50.38
2018-12-17T00:12:22.687Z,50.38
2018-12-17T00:12:54.308Z,50.46
2018-12-17T00:13:25.906Z,50.50
2018-12-17T00:13:57.483Z,50.48
2018-12-17T00:14:29.096Z,50.46
2018-12-17T00:15:00.710Z,50.64
2018-12-17T00:15:32.326Z,50.46
2018-12-17T00:16:03.927Z,50.65
2018-12-17T00:16:35.521Z,50.42
2018-12-17T00:17:07.119Z,50.76
2018-12-17T00:17:38.728Z,50.61
2018-12-17T00:18:10.349Z,50.55
2018-12-17T00:18:41.929Z,50.55
2018-12-17T00:19:13.540Z,50.77
2018-12-17T00:19:45.138Z,50.68
2018-12-17T00:20:16.739Z,50.66
2018-12-17T00:20:48.341Z,50.80
2018-12-17T00:21:19.924Z,50.75
2018-12-17T00:21:51.531Z,50.86
2018-12-17T00:22:23.129Z,50.70
2018-12-17T00:22:54.728Z,50.65
2018-12-17T00:23:26.337Z,50.72
2018-12-17T00:23:57.920Z,50.89
2018-12-17T00:24:29.522Z,50.81
2018-12-17T00:25:01.130Z,50.61
2018-12-17T00:25:32.729Z,50.52
2018-12-17T00:26:04.329Z,50.75
2018-12-17T00:26:35.932Z,50.58
2018-12-17T00:27:07.547Z,50.48
2018-12-17T00:27:39.148Z,50.44
2018-12-17T00:28:10.781Z,50.52
2018-12-17T00:28:42.387Z,50.56
2018-12-17T00:29:13.994Z,50.32
2018-12-17T00:29:45.577Z,50.31
2018-12-17T00:30:17.170Z,50.45
2018-12-17T00:30:48.766Z,50.22
2018-12-17T00:31:20.359Z,50.04
2018-12-17T00:31:51.969Z,50.32
2018-12-17T00:32:23.570Z,49.86
2018-12-17T00:32:55.173Z,50.13
2018-12-17T00:33:26.820Z,49.93
2018-12-17T00:33:58.429Z,49.73
2018-12-17T00:34:30.040Z,49.61
2018-12-17T00:35:01.657Z,49.66
2018-12-17T00:35:33.249Z,49.55
2018-12-17T00:36:04.841Z,49.79
2018-12-17T00:36:36.429Z,49.63
2018-12-17T00:37:08.023Z,49.38
2018-12-17T00:37:39.624Z,49.23
2018-12-17T00:38:11.291Z,49.36
2018-12-17T00:38:42.886Z,49.19
2018-12-17T00:39:14.479Z,49.34
2018-12-17T00:39:46.078Z,49.08
2018-12-17T00:40:17.704Z,49.14
2018-12-17T00:40:49.298Z,49.00
2018-12-17T00:41:20.894Z,48.96
2018-12-17T00:41:52.485Z,48.93
2018-12-17T00:42:24.095Z,49.02
2018-12-17T00:42:55.685Z,48.97
2018-12-17T00:43:27.301Z,48.87
2018-12-17T00:43:58.911Z,48.89
2018-12-17T00:44:30.501Z,48.83
2018-12-17T00:45:02.108Z,49.04
2018-12-17T00:45:33.722Z,48.82
2018-12-17T00:46:05.318Z,48.83
2018-12-17T00:46:36.914Z,49.15
2018-12-17T00:47:08.506Z,49.14
2018-12-17T00:47:40.101Z,49.09
2018-12-17T00:48:11.698Z,49.11
2018-12-17T00:48:43.336Z,49.03
2018-12-17T00:49:14.929Z,49.06
2018-12-17T00:49:46.521Z,49.08
2018-12-17T00:50:18.123Z,48.96
2018-12-17T00:50:49.732Z,49.23
2018-12-17T00:51:21.339Z,49.09
2018-12-17T00:51:52.922Z,48.95
2018-12-17T00:52:24.513Z,49.14
2018-12-17T00:52:56.111Z,49.19
2018-12-17T00:53:27.767Z,48.97
2018-12-17T00:53:59.376Z,49.15
2018-12-17T00:54:30.970Z,48.90
2018-12-17T00:55:02.562Z,49.30
2018-12-17T00:55:34.157Z,48.94
2018-12-17T00:56:05.759Z,49.38
2018-12-17T00:56:37.349Z,49.13
2018-12-17T00:57:08.973Z,49.18
2018-12-17T00:57:40.566Z,49.21
2018-12-17T00:58:15.139Z,49.18
2018-12-17T00:58:43.834Z,49.32
2018-12-17T00:59:15.415Z,49.31
2018-12-17T00:59:47.020Z,49.38
2018-12-17T01:00:18.615Z,49.78
2018-12-17T01:00:50.201Z,49.73
2018-12-17T01:01:21.809Z,49.44
2018-12-17T01:01:53.402Z,49.45
2018-12-17T01:02:24.980Z,49.80
2018-12-17T01:02:56.574Z,49.70
2018-12-17T01:03:28.208Z,49.60
2018-12-17T01:03:59.831Z,49.66
2018-12-17T01:04:31.436Z,49.54
2018-12-17T01:05:03.050Z,49.75
2018-12-17T01:05:34.663Z,49.96
2018-12-17T01:06:06.257Z,49.93
2018-12-17T01:06:37.847Z,49.65
2018-12-17T01:07:09.453Z,50.00
2018-12-17T01:07:41.045Z,49.92
2018-12-17T01:08:12.688Z,50.12
2018-12-17T01:08:44.311Z,49.93
2018-12-17T01:09:15.901Z,49.99
2018-12-17T01:09:47.506Z,50.33
2018-12-17T01:10:19.113Z,50.40
2018-12-17T01:10:50.706Z,50.35
2018-12-17T01:11:22.311Z,50.17
2018-12-17T01:11:53.924Z,50.57
2018-12-17T01:12:25.514Z,50.73
2018-12-17T01:12:57.105Z,50.80
2018-12-17T01:13:28.692Z,50.97
2018-12-17T01:14:00.314Z,50.89
2018-12-17T01:14:31.906Z,51.13
2018-12-17T01:15:03.501Z,51.04
2018-12-17T01:15:35.115Z,51.12
2018-12-17T01:16:06.728Z,51.22
2018-12-17T01:16:38.312Z,51.22
2018-12-17T01:17:09.920Z,51.29
2018-12-17T01:17:41.513Z,51.37
2018-12-17T01:18:13.113Z,51.32
2018-12-17T01:18:44.907Z,51.48
2018-12-17T01:19:16.488Z,51.50
2018-12-17T01:19:48.100Z,51.36
2018-12-17T01:20:19.707Z,51.54
2018-12-17T01:20:51.320Z,51.56
2018-12-17T01:21:22.917Z,51.62
2018-12-17T01:21:54.513Z,51.80
2018-12-17T01:22:26.124Z,51.81
2018-12-17T01:22:57.735Z,51.86
2018-12-17T01:23:29.334Z,51.70
2018-12-17T01:24:00.968Z,52.04
2018-12-17T01:24:32.566Z,52.21
2018-12-17T01:25:04.173Z,52.46
2018-12-17T01:25:35.769Z,52.49
2018-12-17T01:26:07.371Z,52.34
2018-12-17T01:26:38.980Z,52.30
2018-12-17T01:27:10.634Z,52.32
2018-12-17T01:27:42.247Z,52.33
2018-12-17T01:28:13.851Z,52.42
2018-12-17T01:28:45.451Z,52.36
2018-12-17T01:29:17.055Z,52.35
2018-12-17T01:29:48.645Z,52.17
2018-12-17T01:30:20.248Z,52.37
2018-12-17T01:30:51.851Z,52.28
2018-12-17T01:31:23.432Z,52.37
2018-12-17T01:31:55.043Z,52.46
2018-12-17T01:32:26.656Z,52.51
2018-12-17T01:32:58.262Z,52.59
2018-12-17T01:33:29.873Z,52.69
2018-12-17T01:34:01.494Z,52.63
2018-12-17T01:34:33.104Z,52.62
2018-12-17T01:35:04.699Z,52.52
2018-12-17T01:35:36.367Z,52.45
2018-12-17T01:36:07.954Z,52.33
2018-12-17T01:36:39.554Z,52.55
2018-12-17T01:37:11.145Z,52.42
2018-12-17T01:37:42.752Z,52.49
2018-12-17T01:38:14.345Z,52.35
2018-12-17T01:38:45.955Z,52.54
2018-12-17T01:39:17.552Z,52.44
2018-12-17T01:39:49.149Z,52.48
2018-12-17T01:40:20.746Z,52.50
2018-12-17T01:40:52.342Z,52.53
2018-12-17T01:41:23.938Z,52.43
2018-12-17T01:41:55.534Z,52.56
2018-12-17T01:42:27.136Z,52.58
2018-12-17T01:42:58.730Z,52.46
2018-12-17T01:43:30.322Z,52.30
2018-12-17T01:44:01.951Z,52.44
2018-12-17T01:44:33.588Z,52.52
2018-12-17T01:45:05.177Z,52.20
2018-12-17T01:45:36.767Z,52.35
2018-12-17T01:46:08.352Z,52.37
2018-12-17T01:46:39.940Z,52.30
2018-12-17T01:47:11.535Z,52.42
2018-12-17T01:47:43.117Z,52.17
2018-12-17T01:48:14.732Z,51.99
2018-12-17T01:48:46.325Z,52.13
2018-12-17T01:49:17.946Z,51.77
2018-12-17T01:49:49.560Z,51.79
2018-12-17T01:50:21.170Z,51.62
2018-12-17T01:50:52.765Z,51.62
2018-12-17T01:51:24.372Z,51.76
2018-12-17T01:51:55.987Z,51.59
2018-12-17T01:52:27.586Z,51.50
2018-12-17T01:52:59.197Z,51.25
2018-12-17T01:53:30.788Z,51.10
2018-12-17T01:54:02.385Z,51.21
2018-12-17T01:54:33.996Z,51.16
2018-12-17T01:55:36.892Z,50.77
2018-12-17T01:56:08.490Z,50.70
2018-12-17T01:56:40.090Z,50.59
2018-12-17T01:57:11.681Z,50.43
2018-12-17T01:57:43.278Z,50.55
2018-12-17T01:58:14.878Z,50.70
2018-12-17T01:58:46.483Z,50.33
2018-12-17T01:59:18.077Z,50.39
2018-12-17T01:59:49.702Z,50.34
2018-12-17T02:00:21.284Z,50.09
2018-12-17T02:00:52.868Z,50.43
2018-12-17T02:01:24.465Z,49.91
2018-12-17T02:01:56.053Z,50.22
2018-12-17T02:02:27.660Z,50.05
2018-12-17T02:02:59.271Z,49.88
2018-12-17T02:03:30.855Z,50.02
2018-12-17T02:04:02.459Z,49.95
2018-12-17T02:04:34.081Z,49.80
2018-12-17T02:05:05.687Z,49.89
2018-12-17T02:05:37.286Z,49.63
2018-12-17T02:06:08.878Z,49.74
2018-12-17T02:06:40.475Z,50.02
2018-12-17T02:07:12.079Z,49.87
2018-12-17T02:07:43.688Z,49.76
2018-12-17T02:08:15.300Z,49.85
2018-12-17T02:08:46.907Z,49.65
2018-12-17T02:09:18.503Z,49.75
2018-12-17T02:09:50.122Z,49.68
2018-12-17T02:10:21.724Z,49.73
2018-12-17T02:10:53.307Z,50.30
2018-12-17T02:11:24.901Z,50.03
2018-12-17T02:11:56.559Z,49.68
2018-12-17T02:12:28.153Z,49.79
2018-12-17T02:12:59.749Z,49.67
2018-12-17T02:13:31.323Z,49.62
2018-12-17T02:14:02.932Z,49.66
2018-12-17T02:14:34.559Z,50.00
2018-12-17T02:15:06.153Z,49.97
2018-12-17T02:15:37.763Z,50.09
2018-12-17T02:16:09.370Z,49.99
2018-12-17T02:16:40.984Z,50.25
2018-12-17T02:17:12.572Z,50.12
2018-12-17T02:17:44.166Z,50.16
2018-12-17T02:18:15.770Z,50.29
2018-12-17T02:18:47.360Z,50.51
2018-12-17T02:19:18.959Z,50.48
2018-12-17T02:19:50.592Z,50.58
2018-12-17T02:20:22.186Z,50.68
2018-12-17T02:20:53.782Z,50.96
2018-12-17T02:21:25.392Z,50.76
2018-12-17T02:21:56.985Z,50.46
2018-12-17T02:22:28.581Z,50.73
2018-12-17T02:23:00.177Z,50.54
2018-12-17T02:23:31.762Z,50.65
2018-12-17T02:24:03.376Z,50.63
2018-12-17T02:24:35.100Z,50.78
2018-12-17T02:25:06.707Z,50.88
2018-12-17T02:25:38.301Z,50.95
2018-12-17T02:26:09.914Z,51.04
2018-12-17T02:26:41.510Z,51.04
2018-12-17T02:27:13.117Z,51.32
2018-12-17T02:27:44.715Z,51.09
2018-12-17T02:28:16.305Z,51.19
2018-12-17T02:28:47.897Z,51.10
2018-12-17T02:29:19.524Z,51.23
2018-12-17T02:29:51.146Z,51.22
2018-12-17T02:30:22.743Z,51.37
2018-12-17T02:30:54.333Z,51.29
2018-12-17T02:31:25.939Z,51.39
2018-12-17T02:31:57.569Z,51.44
2018-12-17T02:32:29.234Z,51.52
2018-12-17T02:33:00.814Z,51.49
2018-12-17T02:33:32.420Z,51.43
2018-12-17T02:34:04.019Z,51.56
2018-12-17T02:34:35.631Z,51.52
2018-12-17T02:35:07.257Z,51.54
2018-12-17T02:35:38.879Z,51.68
2018-12-17T02:36:10.492Z,51.62
2018-12-17T02:36:42.150Z,51.63
2018-12-17T02:37:13.760Z,51.43
2018-12-17T02:37:45.357Z,51.64
2018-12-17T02:38:16.956Z,51.54
2018-12-17T02:38:48.554Z,51.70
2018-12-17T02:39:20.154Z,51.84
2018-12-17T02:39:51.763Z,51.83
2018-12-17T02:40:23.400Z,51.91
2018-12-17T02:40:55.009Z,51.91
2018-12-17T02:41:26.605Z,51.90
2018-12-17T02:41:58.211Z,51.98
2018-12-17T02:42:29.829Z,51.92
2018-12-17T02:43:01.432Z,51.89
2018-12-17T02:43:33.040Z,51.91
2018-12-17T02:44:04.637Z,51.86
2018-12-17T02:44:36.239Z,51.92
2018-12-17T02:45:07.881Z,51.93
2018-12-17T02:45:39.492Z,51.85
2018-12-17T02:46:11.086Z,51.90
2018-12-17T02:46:42.702Z,52.04
2018-12-17T02:47:14.297Z,52.03
2018-12-17T02:47:45.894Z,51.97
2018-12-17T02:48:17.485Z,52.06
2018-12-17T02:48:49.068Z,52.14
2018-12-17T02:49:20.662Z,52.21
2018-12-17T02:49:52.254Z,52.10
2018-12-17T02:50:23.872Z,52.21
2018-12-17T02:50:55.469Z,52.22
2018-12-17T02:51:27.080Z,52.32
2018-12-17T02:51:58.681Z,52.38
2018-12-17T02:52:30.286Z,52.29
2018-12-17T02:53:01.913Z,52.51
2018-12-17T02:53:33.514Z,52.51
2018-12-17T02:54:05.106Z,52.45
2018-12-17T02:54:36.715Z,52.58
2018-12-17T02:55:08.310Z,52.39
2018-12-17T02:55:39.953Z,52.46
2018-12-17T02:56:11.571Z,52.34
2018-12-17T02:56:43.176Z,52.44
2018-12-17T02:57:14.785Z,52.48
2018-12-17T02:57:46.391Z,52.64
2018-12-17T02:58:18.012Z,52.83
2018-12-17T02:58:49.619Z,52.63
2018-12-17T02:59:21.215Z,52.62
2018-12-17T02:59:52.814Z,52.54
2018-12-17T03:00:24.428Z,52.30
2018-12-17T03:00:56.031Z,52.76
2018-12-17T03:01:27.616Z,52.71
2018-12-17T03:01:59.228Z,52.49
2018-12-17T03:02:30.832Z,52.45
2018-12-17T03:03:02.442Z,52.53
2018-12-17T03:03:34.046Z,52.21
2018-12-17T03:04:05.642Z,52.29
2018-12-17T03:04:37.492Z,52.04
2018-12-17T03:05:09.137Z,52.11
2018-12-17T03:05:40.762Z,52.09
2018-12-17T03:06:12.355Z,51.81
2018-12-17T03:06:43.949Z,51.96
2018-12-17T03:07:15.541Z,51.83
2018-12-17T03:07:47.153Z,51.91
2018-12-17T03:08:18.763Z,51.73
2018-12-17T03:08:50.365Z,51.68
2018-12-17T03:09:21.958Z,51.79
2018-12-17T03:09:53.549Z,51.96
2018-12-17T03:10:25.143Z,51.94
2018-12-17T03:10:56.749Z,51.70
2018-12-17T03:11:28.356Z,51.86
2018-12-17T03:11:59.949Z,51.38
2018-12-17T03:12:31.551Z,51.40
2018-12-17T03:13:03.160Z,51.50
2018-12-17T03:13:34.748Z,51.11
2018-12-17T03:14:06.342Z,51.21
2018-12-17T03:14:37.933Z,51.39
2018-12-17T03:15:09.530Z,50.93
2018-12-17T03:15:41.121Z,50.97
2018-12-17T03:16:12.727Z,51.06
2018-12-17T03:16:44.325Z,51.02
2018-12-17T03:17:15.908Z,50.99
2018-12-17T03:17:47.501Z,50.94
2018-12-17T03:18:19.104Z,50.99
2018-12-17T03:18:50.698Z,51.03
2018-12-17T03:19:22.308Z,50.79
2018-12-17T03:19:53.900Z,50.95
2018-12-17T03:20:25.503Z,50.83
2018-12-17T03:20:57.133Z,50.64
2018-12-17T03:21:28.717Z,50.68
2018-12-17T03:22:00.315Z,50.68
2018-12-17T03:22:32.023Z,50.68
2018-12-17T03:23:03.628Z,50.77
2018-12-17T03:23:35.232Z,51.05
2018-12-17T03:24:06.829Z,50.76
2018-12-17T03:24:38.430Z,50.50
2018-12-17T03:25:10.041Z,50.45
2018-12-17T03:25:41.665Z,50.54
2018-12-17T03:26:13.258Z,50.75
2018-12-17T03:26:44.867Z,50.72
2018-12-17T03:27:16.473Z,50.39
2018-12-17T03:27:48.083Z,50.87
2018-12-17T03:28:19.692Z,50.78
2018-12-17T03:28:51.937Z,50.97
2018-12-17T03:29:22.942Z,50.74
2018-12-17T03:29:54.540Z,50.82
2018-12-17T03:30:26.155Z,50.91
2018-12-17T03:30:57.812Z,51.24
2018-12-17T03:31:29.437Z,51.16
2018-12-17T03:32:01.043Z,51.55
2018-12-17T03:32:32.675Z,51.28
2018-12-17T03:33:04.264Z,51.58
2018-12-17T03:33:35.848Z,51.51
2018-12-17T03:34:07.446Z,51.60
2018-12-17T03:34:39.044Z,51.88
2018-12-17T03:35:10.660Z,51.91
2018-12-17T03:35:42.253Z,51.88
2018-12-17T03:36:13.870Z,52.52
2018-12-17T03:36:45.456Z,52.11
2018-12-17T03:37:17.064Z,52.05
2018-12-17T03:37:48.649Z,51.78
2018-12-17T03:38:20.257Z,51.79
2018-12-17T03:38:51.867Z,51.73
2018-12-17T03:39:23.447Z,52.16
2018-12-17T03:39:55.038Z,51.60
2018-12-17T03:40:26.648Z,51.76
2018-12-17T03:40:58.471Z,52.13
2018-12-17T03:41:30.067Z,52.01
2018-12-17T03:42:01.668Z,43.53
2018-12-17T03:42:33.272Z,38.96
2018-12-17T03:43:04.866Z,37.48
2018-12-17T03:43:36.459Z,37.55
2018-12-17T03:44:08.056Z,39.32
2018-12-17T03:44:39.654Z,37.71
2018-12-17T03:45:11.267Z,37.30
2018-12-17T03:45:42.864Z,36.93
2018-12-17T03:46:14.495Z,36.20
2018-12-17T03:46:46.094Z,36.87
2018-12-17T03:47:17.704Z,37.24
2018-12-17T03:47:49.313Z,36.68
2018-12-17T03:48:20.900Z,36.55
2018-12-17T03:48:52.499Z,36.02
2018-12-17T03:49:24.099Z,38.11
2018-12-17T03:49:55.698Z,41.41
2018-12-17T03:50:27.287Z,42.82
2018-12-17T03:50:58.921Z,41.92
2018-12-17T03:51:30.561Z,40.91
2018-12-17T03:52:02.163Z,41.26
2018-12-17T03:52:33.766Z,40.45
2018-12-17T03:53:05.361Z,39.47
2018-12-17T03:53:36.958Z,40.40
2018-12-17T03:54:08.563Z,40.00
2018-12-17T03:54:40.148Z,40.06
2018-12-17T03:55:11.745Z,39.89
2018-12-17T03:55:43.337Z,40.03
2018-12-17T03:56:14.970Z,40.39
2018-12-17T03:56:46.580Z,40.86
2018-12-17T03:57:18.234Z,42.14
2018-12-17T03:57:49.834Z,42.67
2018-12-17T03:58:21.426Z,42.47
2018-12-17T03:58:59.309Z,42.39
2018-12-17T03:59:24.658Z,42.71
2018-12-17T03:59:56.292Z,42.56
2018-12-17T04:00:27.900Z,42.32
2018-12-17T04:00:59.518Z,42.21
2018-12-17T04:01:31.159Z,42.26
2018-12-17T04:02:02.753Z,42.32
2018-12-17T04:02:34.346Z,42.26
2018-12-17T04:03:05.941Z,42.27
2018-12-17T04:03:37.548Z,42.33
2018-12-17T04:04:09.148Z,42.39
2018-12-17T04:04:40.759Z,42.35
2018-12-17T04:05:12.353Z,42.38
2018-12-17T04:05:43.964Z,42.37
2018-12-17T04:06:15.608Z,42.30
2018-12-17T04:06:47.240Z,42.42
2018-12-17T04:07:18.835Z,42.49
2018-12-17T04:07:50.453Z,42.54
2018-12-17T04:08:22.050Z,42.61
2018-12-17T04:08:53.661Z,42.63
2018-12-17T04:09:25.267Z,42.68
2018-12-17T04:09:56.877Z,42.71
2018-12-17T04:10:28.485Z,42.74
2018-12-17T04:11:00.208Z,42.78
2018-12-17T04:11:31.841Z,42.86
2018-12-17T04:12:03.452Z,42.85
2018-12-17T04:12:35.044Z,42.92
2018-12-17T04:13:06.673Z,42.95
2018-12-17T04:13:38.281Z,42.95
2018-12-17T04:14:09.881Z,42.97
2018-12-17T04:14:41.481Z,42.97
2018-12-17T04:15:13.075Z,42.98
2018-12-17T04:15:44.674Z,43.05
2018-12-17T04:16:16.285Z,43.12
2018-12-17T04:16:47.920Z,43.20
2018-12-17T04:17:19.523Z,43.12
2018-12-17T04:17:51.128Z,43.07
2018-12-17T04:18:22.727Z,43.09
2018-12-17T04:18:54.325Z,43.11
2018-12-17T04:19:25.933Z,43.16
2018-12-17T04:19:57.545Z,43.26
2018-12-17T04:20:29.151Z,43.30
2018-12-17T04:21:00.745Z,43.36
2018-12-17T04:21:32.365Z,43.40
2018-12-17T04:22:03.963Z,43.41
2018-12-17T04:22:35.557Z,43.44
2018-12-17T04:23:07.140Z,43.43
2018-12-17T04:23:38.754Z,43.51
2018-12-17T04:24:10.361Z,43.52
2018-12-17T04:24:41.961Z,43.54
2018-12-17T04:25:13.576Z,43.60
2018-12-17T04:25:45.179Z,43.61
2018-12-17T04:26:16.788Z,43.62
2018-12-17T04:26:48.445Z,43.71
2018-12-17T04:27:20.067Z,43.70
2018-12-17T04:27:51.670Z,43.75
2018-12-17T04:28:23.276Z,43.77
2018-12-17T04:28:54.916Z,43.73
2018-12-17T04:29:26.504Z,43.78
2018-12-17T04:29:58.111Z,43.75
2018-12-17T04:30:29.697Z,43.80
2018-12-17T04:31:01.290Z,43.75
2018-12-17T04:31:32.924Z,43.80
2018-12-17T04:32:04.525Z,43.80
2018-12-17T04:32:36.107Z,43.79
2018-12-17T04:33:07.713Z,43.83
2018-12-17T04:33:39.309Z,43.85
2018-12-17T04:34:10.915Z,43.86
2018-12-17T04:34:42.527Z,43.88
2018-12-17T04:35:14.126Z,43.93
2018-12-17T04:35:45.727Z,43.96
2018-12-17T04:36:17.337Z,44.01
2018-12-17T04:36:48.975Z,44.05
2018-12-17T04:37:20.584Z,44.08
2018-12-17T04:37:52.191Z,44.13
2018-12-17T04:38:23.791Z,44.15
2018-12-17T04:38:55.381Z,44.23
2018-12-17T04:39:26.973Z,44.24
2018-12-17T04:39:58.565Z,44.35
2018-12-17T04:40:30.157Z,44.36
2018-12-17T04:41:01.749Z,44.40
2018-12-17T04:41:33.412Z,44.40
2018-12-17T04:42:05.012Z,44.51
2018-12-17T04:42:36.605Z,44.55
2018-12-17T04:43:08.201Z,44.55
2018-12-17T04:43:39.802Z,44.60
2018-12-17T04:44:11.407Z,44.69
2018-12-17T04:44:43.009Z,44.73
2018-12-17T04:45:14.600Z,44.81
2018-12-17T04:45:46.194Z,44.93
2018-12-17T04:46:17.801Z,44.94
2018-12-17T04:46:49.440Z,45.04
2018-12-17T04:47:21.048Z,45.09
2018-12-17T04:47:52.657Z,45.10
2018-12-17T04:48:24.244Z,45.21
2018-12-17T04:48:55.840Z,45.23
2018-12-17T04:49:27.423Z,45.26
2018-12-17T04:49:59.032Z,45.31
2018-12-17T04:50:30.641Z,45.30
2018-12-17T04:51:02.241Z,45.36
2018-12-17T04:51:33.834Z,45.39
2018-12-17T04:52:05.453Z,45.54
2018-12-17T04:52:37.063Z,45.50
2018-12-17T04:53:08.659Z,45.56
2018-12-17T04:53:40.244Z,45.54
2018-12-17T04:54:11.838Z,45.66
2018-12-17T04:54:43.481Z,45.76
2018-12-17T04:55:15.074Z,45.76
2018-12-17T04:55:46.688Z,45.78
2018-12-17T04:56:18.285Z,45.75
2018-12-17T04:56:49.936Z,45.74
2018-12-17T04:57:21.534Z,45.83
2018-12-17T04:57:53.144Z,45.90
2018-12-17T04:58:24.741Z,45.99
2018-12-17T04:58:56.349Z,46.00
2018-12-17T04:59:27.959Z,46.04
2018-12-17T04:59:59.569Z,46.12
2018-12-17T05:00:31.165Z,46.10
2018-12-17T05:01:02.772Z,46.14
2018-12-17T05:01:34.373Z,46.20
2018-12-17T05:02:06.021Z,46.29
2018-12-17T05:02:37.639Z,46.30
2018-12-17T05:03:09.246Z,46.31
2018-12-17T05:03:40.860Z,46.39
2018-12-17T05:04:12.497Z,46.40
2018-12-17T05:04:44.100Z,46.46
2018-12-17T05:05:15.694Z,46.50
2018-12-17T05:05:47.289Z,46.52
2018-12-17T05:06:18.872Z,46.55
2018-12-17T05:06:50.452Z,46.57
2018-12-17T05:07:22.056Z,46.63
2018-12-17T05:07:53.654Z,46.64
2018-12-17T05:08:25.245Z,46.68
2018-12-17T05:08:56.837Z,46.69
2018-12-17T05:09:28.443Z,46.69
2018-12-17T05:10:00.037Z,46.69
2018-12-17T05:10:31.651Z,46.74
2018-12-17T05:11:03.264Z,46.76
2018-12-17T05:11:34.877Z,46.75
2018-12-17T05:12:06.473Z,46.78
2018-12-17T05:12:38.081Z,46.80
2018-12-17T05:13:09.665Z,46.80
2018-12-17T05:13:41.259Z,46.87
2018-12-17T05:14:12.875Z,46.87
2018-12-17T05:14:44.469Z,46.92
2018-12-17T05:15:16.065Z,46.88
2018-12-17T05:15:47.752Z,46.88
2018-12-17T05:16:19.354Z,46.89
2018-12-17T05:16:50.950Z,46.93
2018-12-17T05:17:22.585Z,46.91
2018-12-17T05:17:54.172Z,46.90
2018-12-17T05:18:25.770Z,46.93
2018-12-17T05:18:57.379Z,46.98
2018-12-17T05:19:28.983Z,47.00
2018-12-17T05:20:00.578Z,46.96
2018-12-17T05:20:32.173Z,47.00
2018-12-17T05:21:03.781Z,47.00
2018-12-17T05:21:35.396Z,46.96
2018-12-17T05:22:07.018Z,46.94
2018-12-17T05:22:38.613Z,46.92
2018-12-17T05:23:10.206Z,46.91
2018-12-17T05:23:41.805Z,46.79
2018-12-17T05:24:13.398Z,46.83
2018-12-17T05:24:44.994Z,46.80
2018-12-17T05:25:16.576Z,46.81
2018-12-17T05:25:48.174Z,46.79
2018-12-17T05:26:19.785Z,46.71
2018-12-17T05:26:51.393Z,46.62
2018-12-17T05:27:23.022Z,46.60
2018-12-17T05:27:54.613Z,46.56
2018-12-17T05:28:26.216Z,46.50
2018-12-17T05:28:57.828Z,46.46
2018-12-17T05:29:29.426Z,46.40
2018-12-17T05:30:01.019Z,46.39
2018-12-17T05:30:32.627Z,46.28
2018-12-17T05:31:04.221Z,46.27
2018-12-17T05:31:35.831Z,46.13
2018-12-17T05:32:08.360Z,46.07
2018-12-17T05:32:39.992Z,46.01
2018-12-17T05:33:11.583Z,45.92
2018-12-17T05:33:43.192Z,45.82
2018-12-17T05:34:14.776Z,45.74
2018-12-17T05:34:46.387Z,45.65
2018-12-17T05:35:17.985Z,45.68
2018-12-17T05:35:49.586Z,45.59
2018-12-17T05:36:21.179Z,45.52
2018-12-17T05:36:52.762Z,45.49
2018-12-17T05:37:24.397Z,45.40
2018-12-17T05:37:55.998Z,45.41
2018-12-17T05:38:27.604Z,45.37
2018-12-17T05:38:59.212Z,45.32
2018-12-17T05:39:30.824Z,45.25
2018-12-17T05:40:02.447Z,45.25
2018-12-17T05:40:34.036Z,45.22
2018-12-17T05:41:05.628Z,45.17
2018-12-17T05:41:37.226Z,45.10
2018-12-17T05:42:08.822Z,45.08
2018-12-17T05:42:40.460Z,45.05
2018-12-17T05:43:12.063Z,45.01
2018-12-17T05:43:43.672Z,45.04
2018-12-17T05:44:15.261Z,45.05
2018-12-17T05:44:46.844Z,45.02
2018-12-17T05:45:18.443Z,45.02
2018-12-17T05:45:50.039Z,45.00
2018-12-17T05:46:21.629Z,44.95
2018-12-17T05:46:53.233Z,44.93
2018-12-17T05:47:24.878Z,44.89
2018-12-17T05:47:56.488Z,44.91
2018-12-17T05:48:28.096Z,44.88
2018-12-17T05:48:59.697Z,44.88
2018-12-17T05:49:31.291Z,44.88
2018-12-17T05:50:02.897Z,44.91
2018-12-17T05:50:34.484Z,44.86
2018-12-17T05:51:06.077Z,44.83
2018-12-17T05:51:37.677Z,44.81
2018-12-17T05:52:09.269Z,44.81
2018-12-17T05:52:40.889Z,44.82
2018-12-17T05:53:12.486Z,44.81
2018-12-17T05:53:44.102Z,44.84
2018-12-17T05:54:15.700Z,44.83
2018-12-17T05:54:47.293Z,44.81
2018-12-17T05:55:18.878Z,44.82
2018-12-17T05:55:50.492Z,44.81
2018-12-17T05:56:22.104Z,44.81
2018-12-17T05:56:53.702Z,44.81
2018-12-17T05:57:25.293Z,44.83
2018-12-17T05:57:56.927Z,44.83
2018-12-17T05:58:28.524Z,44.84
2018-12-17T05:59:00.117Z,44.76
2018-12-17T05:59:31.710Z,44.75
2018-12-17T06:00:03.305Z,44.77
2018-12-17T06:00:34.897Z,44.79
2018-12-17T06:01:06.507Z,44.77
2018-12-17T06:01:38.105Z,44.76
2018-12-17T06:02:09.702Z,44.76
2018-12-17T06:02:41.297Z,44.73
2018-12-17T06:03:12.914Z,44.77
2018-12-17T06:03:44.511Z,44.77
2018-12-17T06:04:16.128Z,44.82
2018-12-17T06:04:47.725Z,44.89
2018-12-17T06:05:19.318Z,44.87
2018-12-17T06:05:50.910Z,44.95
2018-12-17T06:06:22.509Z,44.91
2018-12-17T06:06:54.102Z,44.96
2018-12-17T06:07:25.693Z,44.99
2018-12-17T06:07:57.327Z,45.01
2018-12-17T06:08:28.964Z,45.09
2018-12-17T06:09:00.558Z,45.08
2018-12-17T06:09:32.166Z,45.09
2018-12-17T06:10:03.761Z,45.18
2018-12-17T06:10:35.411Z,45.17
2018-12-17T06:11:07.006Z,45.15
2018-12-17T06:11:38.608Z,45.21
2018-12-17T06:12:10.220Z,45.22
2018-12-17T06:12:41.839Z,45.26
2018-12-17T06:13:13.457Z,45.23
2018-12-17T06:13:45.050Z,45.28
2018-12-17T06:14:16.657Z,45.30
2018-12-17T06:14:49.270Z,45.38
2018-12-17T06:15:20.866Z,45.38
2018-12-17T06:15:52.457Z,45.46
2018-12-17T06:16:24.070Z,45.42
2018-12-17T06:16:55.659Z,45.49
2018-12-17T06:17:27.254Z,45.50
2018-12-17T06:17:58.917Z,45.49
2018-12-17T06:18:30.552Z,45.54
2018-12-17T06:19:02.151Z,45.59
2018-12-17T06:19:33.760Z,45.61
2018-12-17T06:20:05.361Z,45.61
2018-12-17T06:20:36.963Z,45.75
2018-12-17T06:21:08.557Z,45.71
2018-12-17T06:21:40.155Z,45.74
2018-12-17T06:22:11.749Z,45.71
2018-12-17T06:22:43.342Z,45.78
2018-12-17T06:23:14.977Z,45.72
2018-12-17T06:23:46.573Z,45.75
2018-12-17T06:24:18.165Z,45.76
2018-12-17T06:24:49.758Z,45.68
2018-12-17T06:25:21.355Z,45.76
2018-12-17T06:25:52.972Z,45.71
2018-12-17T06:26:24.581Z,45.69
2018-12-17T06:26:56.192Z,45.83
2018-12-17T06:27:27.790Z,45.87
2018-12-17T06:27:59.376Z,45.82
2018-12-17T06:28:30.998Z,45.90
2018-12-17T06:29:02.592Z,45.82
2018-12-17T06:29:35.691Z,45.89
2018-12-17T06:30:05.835Z,45.94
2018-12-17T06:30:37.426Z,45.90
2018-12-17T06:31:09.032Z,45.99
2018-12-17T06:31:40.640Z,45.97
2018-12-17T06:32:12.223Z,46.06
2018-12-17T06:32:43.818Z,46.04
2018-12-17T06:33:15.764Z,46.09
2018-12-17T06:33:47.102Z,46.15
2018-12-17T06:34:18.697Z,46.19
2018-12-17T06:34:50.303Z,46.24
2018-12-17T06:35:21.915Z,46.31
2018-12-17T06:35:53.510Z,46.28
2018-12-17T06:36:25.123Z,46.34
2018-12-17T06:36:56.725Z,46.39
2018-12-17T06:37:28.321Z,46.40
2018-12-17T06:37:59.927Z,46.46
2018-12-17T06:38:31.567Z,46.50
2018-12-17T06:39:03.189Z,46.56
2018-12-17T06:39:34.788Z,46.63
2018-12-17T06:40:10.319Z,46.64
2018-12-17T06:40:38.033Z,46.67
2018-12-17T06:41:09.635Z,46.67
2018-12-17T06:41:41.233Z,46.80
2018-12-17T06:42:12.839Z,46.82
2018-12-17T06:42:44.455Z,46.85
2018-12-17T06:43:16.054Z,46.83
2018-12-17T06:43:47.660Z,46.88
2018-12-17T06:44:19.258Z,46.89
2018-12-17T06:44:50.872Z,46.89
2018-12-17T06:45:22.495Z,46.94
2018-12-17T06:45:54.119Z,46.98
2018-12-17T06:46:25.711Z,46.99
2018-12-17T06:46:57.318Z,46.98
2018-12-17T06:47:28.914Z,46.92